createdAt,value
2022-10-25T00:00:01.895Z,14.2
2022-10-25T00:01:01.508Z,14.2
2022-10-25T00:02:01.252Z,14.2
2022-10-25T00:03:01.685Z,14.3
2022-10-25T00:04:01.277Z,14.3
2022-10-25T00:05:01.872Z,14.4
2022-10-25T00:06:01.447Z,14.3
2022-10-25T00:07:01.022Z,14.3
2022-10-25T00:08:01.597Z,14.3
2022-10-25T00:09:01.175Z,14.3
2022-10-25T00:10:01.765Z,14.3
2022-10-25T00:11:01.358Z,14.3
2022-10-25T00:12:01.920Z,14.3
2022-10-25T00:13:01.493Z,14.3
2022-10-25T00:14:01.067Z,14.3
2022-10-25T00:15:01.655Z,14.4
2022-10-25T00:16:01.250Z,14.3
2022-10-25T00:17:01.817Z,14.3
2022-10-25T00:18:01.388Z,14.3
2022-10-25T00:19:00.962Z,14.3
2022-10-25T00:20:01.539Z,14.3
2022-10-25T00:22:01.689Z,14.3
2022-10-25T00:23:01.264Z,14.3
2022-10-25T00:24:01.840Z,14.3
2022-10-25T00:25:01.414Z,14.3
2022-10-25T00:26:01.006Z,14.3
2022-10-25T00:27:01.581Z,14.3
2022-10-25T00:28:01.160Z,14.4
2022-10-25T00:29:01.734Z,14.3
2022-10-25T00:30:01.308Z,14.3
2022-10-25T00:31:01.896Z,14.3
2022-10-25T00:32:01.482Z,14.3
2022-10-25T00:33:01.055Z,14.3
2022-10-25T00:34:01.627Z,14.3
2022-10-25T00:35:01.201Z,14.3
2022-10-25T00:36:01.794Z,14.3
2022-10-25T00:37:01.412Z,14.3
2022-10-25T00:38:00.956Z,14.4
2022-10-25T00:39:01.531Z,14.3
2022-10-25T00:40:01.106Z,14.3
2022-10-25T00:41:01.679Z,14.3
2022-10-25T00:42:01.272Z,14.3
2022-10-25T00:43:01.830Z,14.3
2022-10-25T00:44:01.407Z,14.4
2022-10-25T00:45:00.998Z,14.4
2022-10-25T00:47:01.151Z,14.3
2022-10-25T00:48:01.745Z,14.3
2022-10-25T00:49:01.318Z,14.2
2022-10-25T00:50:01.909Z,14.2
2022-10-25T00:51:01.482Z,14.2
2022-10-25T00:52:01.074Z,14.2
2022-10-25T00:53:01.657Z,14.2
2022-10-25T00:54:01.235Z,14.3
2022-10-25T00:55:01.809Z,14.3
2022-10-25T00:56:01.382Z,14.3
2022-10-25T00:57:00.973Z,14.3
2022-10-25T00:58:01.525Z,14.3
2022-10-25T00:59:01.101Z,14.3
2022-10-25T01:00:01.672Z,14.4
2022-10-25T01:01:01.287Z,14.3
2022-10-25T01:02:02.013Z,14.4
2022-10-25T01:03:01.488Z,14.3
2022-10-25T01:04:01.058Z,14.3
2022-10-25T01:05:01.640Z,14.3
2022-10-25T01:06:01.229Z,14.3
2022-10-25T01:07:01.823Z,14.3
2022-10-25T01:08:01.398Z,14.3
2022-10-25T01:09:00.995Z,14.3
2022-10-25T01:10:01.557Z,14.3
2022-10-25T01:11:01.135Z,14.3
2022-10-25T01:12:01.725Z,14.3
2022-10-25T01:13:01.299Z,14.3
2022-10-25T01:14:01.874Z,14.3
2022-10-25T01:15:01.446Z,14.3
2022-10-25T01:16:01.022Z,14.3
2022-10-25T01:17:01.612Z,14.2
2022-10-25T01:18:01.186Z,14.3
2022-10-25T01:19:01.759Z,14.2
2022-10-25T01:20:01.341Z,14.2
2022-10-25T01:21:01.914Z,14.2
2022-10-25T01:22:01.509Z,14.3
2022-10-25T01:23:01.080Z,14.3
2022-10-25T01:24:01.653Z,14.2
2022-10-25T01:25:01.253Z,14.2
2022-10-25T01:26:01.808Z,14.2
2022-10-25T01:27:01.398Z,14.2
2022-10-25T01:28:00.976Z,14.2
2022-10-25T01:29:01.547Z,14.1
2022-10-25T01:30:01.120Z,14.1
2022-10-25T01:31:01.694Z,14.1
2022-10-25T01:32:01.284Z,14.1
2022-10-25T01:33:01.839Z,14.1
2022-10-25T01:34:01.412Z,14.1
2022-10-25T01:35:00.986Z,14.1
2022-10-25T01:36:01.583Z,14.3
2022-10-25T01:37:01.175Z,14.3
2022-10-25T01:38:01.747Z,14.4
2022-10-25T01:39:01.320Z,14.4
2022-10-25T01:40:01.899Z,14.3
2022-10-25T01:41:01.511Z,14.3
2022-10-25T01:42:01.083Z,14.4
2022-10-25T01:43:01.695Z,14.4
2022-10-25T01:44:01.269Z,14.5
2022-10-25T01:45:01.844Z,14.5
2022-10-25T01:46:01.414Z,14.5
2022-10-25T01:47:00.985Z,14.4
2022-10-25T01:48:01.629Z,14.4
2022-10-25T01:49:01.201Z,14.4
2022-10-25T01:50:01.773Z,14.4
2022-10-25T01:51:01.344Z,14.4
2022-10-25T01:52:01.917Z,14.3
2022-10-25T01:53:01.505Z,14.3
2022-10-25T01:54:01.096Z,14.3
2022-10-25T01:55:01.654Z,14.3
2022-10-25T01:56:01.225Z,14.3
2022-10-25T01:57:01.825Z,14.3
2022-10-25T01:58:01.401Z,14.3
2022-10-25T01:59:00.991Z,14.3
2022-10-25T02:00:01.560Z,14.3
2022-10-25T02:01:01.320Z,14.3
2022-10-25T02:02:01.720Z,14.3
2022-10-25T02:03:01.295Z,14.3
2022-10-25T02:04:01.885Z,14.3
2022-10-25T02:05:01.456Z,14.4
2022-10-25T02:06:01.047Z,14.3
2022-10-25T02:07:01.617Z,14.4
2022-10-25T02:08:01.190Z,14.4
2022-10-25T02:09:01.762Z,14.3
2022-10-25T02:10:01.431Z,14.3
2022-10-25T02:11:01.929Z,14.3
2022-10-25T02:12:01.502Z,14.4
2022-10-25T02:13:01.098Z,14.3
2022-10-25T02:14:01.654Z,14.3
2022-10-25T02:15:01.230Z,14.3
2022-10-25T02:16:01.821Z,14.3
2022-10-25T02:17:01.396Z,14.3
2022-10-25T02:18:00.976Z,14.2
2022-10-25T02:19:01.555Z,14.2
2022-10-25T02:20:01.131Z,14.1
2022-10-25T02:21:01.737Z,14.1
2022-10-25T02:22:01.311Z,14.1
2022-10-25T02:23:01.885Z,14.1
2022-10-25T02:24:01.458Z,14
2022-10-25T02:25:01.030Z,14.1
2022-10-25T02:26:01.619Z,14
2022-10-25T02:27:01.215Z,14
2022-10-25T02:28:01.769Z,14.1
2022-10-25T02:29:01.377Z,14.1
2022-10-25T02:30:01.920Z,14.1
2022-10-25T02:31:01.502Z,14.1
2022-10-25T02:32:01.091Z,14
2022-10-25T02:33:01.660Z,14
2022-10-25T02:34:01.237Z,14.1
2022-10-25T02:35:01.867Z,14
2022-10-25T02:36:01.457Z,14.1
2022-10-25T02:37:01.042Z,14
2022-10-25T02:38:01.599Z,14
2022-10-25T02:39:01.167Z,14
2022-10-25T02:40:01.735Z,13.9
2022-10-25T02:41:01.325Z,13.9
2022-10-25T02:42:01.910Z,13.9
2022-10-25T02:43:01.482Z,13.9
2022-10-25T02:44:01.056Z,13.9
2022-10-25T02:45:01.652Z,13.9
2022-10-25T02:46:01.224Z,13.9
2022-10-25T02:47:01.815Z,13.9
2022-10-25T02:48:01.390Z,14.1
2022-10-25T02:49:01.002Z,14.1
2022-10-25T02:50:01.564Z,14.1
2022-10-25T02:51:01.139Z,14.1
2022-10-25T02:52:01.730Z,14.1
2022-10-25T02:53:01.304Z,14.1
2022-10-25T02:54:01.875Z,14.1
2022-10-25T02:55:01.445Z,14.1
2022-10-25T02:56:01.018Z,14
2022-10-25T02:57:01.798Z,14.1
2022-10-25T02:58:01.262Z,14.1
2022-10-25T02:59:01.833Z,14.1
2022-10-25T03:00:01.506Z,14.1
2022-10-25T03:01:01.079Z,14.1
2022-10-25T03:02:01.589Z,14.1
2022-10-25T03:03:01.193Z,14.1
2022-10-25T03:04:01.751Z,14.2
2022-10-25T03:05:01.323Z,14.2
2022-10-25T03:06:01.902Z,14.2
2022-10-25T03:07:01.480Z,14.2
2022-10-25T03:08:01.067Z,14.2
2022-10-25T03:09:01.635Z,14.2
2022-10-25T03:10:01.207Z,14.2
2022-10-25T03:11:01.784Z,14.2
2022-10-25T03:12:01.356Z,14.2
2022-10-25T03:13:01.967Z,14.2
2022-10-25T03:14:01.567Z,14.2
2022-10-25T03:15:01.143Z,14.2
2022-10-25T03:16:01.715Z,14.3
2022-10-25T03:17:01.314Z,14.2
2022-10-25T03:18:01.887Z,14.3
2022-10-25T03:19:01.481Z,14.2
2022-10-25T03:20:01.055Z,14.3
2022-10-25T03:21:01.629Z,14.3
2022-10-25T03:22:01.203Z,14.2
2022-10-25T03:23:01.896Z,14.3
2022-10-25T03:24:01.458Z,14.3
2022-10-25T03:25:01.027Z,14.2
2022-10-25T03:26:01.583Z,14.3
2022-10-25T03:27:01.151Z,14.3
2022-10-25T03:28:01.749Z,14.3
2022-10-25T03:29:01.344Z,14.3
2022-10-25T03:30:01.921Z,14.3
2022-10-25T03:31:01.493Z,14.2
2022-10-25T03:32:01.064Z,14.2
2022-10-25T03:33:01.663Z,14.2
2022-10-25T03:34:01.283Z,14.2
2022-10-25T03:35:01.876Z,14.2
2022-10-25T03:36:01.453Z,14.2
2022-10-25T03:37:01.023Z,14.3
2022-10-25T03:38:01.630Z,14.3
2022-10-25T03:39:01.209Z,14.3
2022-10-25T03:40:01.800Z,14.3
2022-10-25T03:41:01.390Z,14.3
2022-10-25T03:42:00.958Z,14.3
2022-10-25T03:43:01.571Z,14.3
2022-10-25T03:44:01.146Z,14.3
2022-10-25T03:45:01.736Z,14.2
2022-10-25T03:46:01.360Z,14.2
2022-10-25T03:47:01.914Z,14.2
2022-10-25T03:48:01.488Z,14.3
2022-10-25T03:49:01.085Z,14.3
2022-10-25T03:50:01.678Z,14.3
2022-10-25T03:51:01.267Z,14.2
2022-10-25T03:52:04.148Z,14.3
2022-10-25T03:53:01.516Z,14.2
2022-10-25T03:54:01.045Z,14.3
2022-10-25T03:55:01.618Z,14.3
2022-10-25T03:56:01.210Z,14.2
2022-10-25T03:57:01.766Z,14.2
2022-10-25T03:58:01.377Z,14.2
2022-10-25T03:59:01.919Z,14.3
2022-10-25T04:00:01.490Z,14.3
2022-10-25T04:01:01.229Z,14.3
2022-10-25T04:02:01.689Z,14.3
2022-10-25T04:03:02.061Z,14.3
2022-10-25T04:04:00.979Z,14.3
2022-10-25T04:05:01.578Z,14.3
2022-10-25T04:06:01.091Z,14.3
2022-10-25T04:07:01.684Z,14.2
2022-10-25T04:08:01.257Z,14.2
2022-10-25T04:09:01.830Z,14.3
2022-10-25T04:10:01.401Z,14.3
2022-10-25T04:11:00.973Z,14.2
2022-10-25T04:12:01.566Z,14.2
2022-10-25T04:13:01.206Z,14.3
2022-10-25T04:14:01.721Z,14.3
2022-10-25T04:15:01.311Z,14.3
2022-10-25T04:16:01.879Z,14.3
2022-10-25T04:17:01.449Z,14.3
2022-10-25T04:18:01.096Z,14.3
2022-10-25T04:19:01.611Z,14.2
2022-10-25T04:20:01.197Z,14.3
2022-10-25T04:21:01.786Z,14.3
2022-10-25T04:22:01.362Z,14.2
2022-10-25T04:23:01.933Z,14.2
2022-10-25T04:24:03.390Z,14.2
2022-10-25T04:25:01.078Z,14.2
2022-10-25T04:26:01.650Z,14.1
2022-10-25T04:27:01.225Z,14.1
2022-10-25T04:28:01.799Z,14.2
2022-10-25T04:29:01.388Z,14.2
2022-10-25T04:30:00.946Z,14.2
2022-10-25T04:31:01.518Z,14.2
2022-10-25T04:32:01.095Z,14.2
2022-10-25T04:33:01.664Z,14.2
2022-10-25T04:34:01.259Z,14.3
2022-10-25T04:35:01.824Z,14.3
2022-10-25T04:36:01.411Z,14.2
2022-10-25T04:37:00.992Z,14.2
2022-10-25T04:38:01.553Z,14.1
2022-10-25T04:39:01.152Z,14.1
2022-10-25T04:40:01.711Z,14.2
2022-10-25T04:41:01.283Z,14.2
2022-10-25T04:42:01.878Z,14.2
2022-10-25T04:43:01.509Z,14.2
2022-10-25T04:44:01.100Z,14.2
2022-10-25T04:45:01.668Z,14.2
2022-10-25T04:46:01.243Z,14.1
2022-10-25T04:47:01.818Z,14.2
2022-10-25T04:48:01.412Z,14.2
2022-10-25T04:49:00.985Z,14.2
2022-10-25T04:50:01.601Z,14.2
2022-10-25T04:51:01.172Z,14.2
2022-10-25T04:52:01.746Z,14.2
2022-10-25T04:53:01.346Z,14.1
2022-10-25T04:54:01.904Z,14.1
2022-10-25T04:55:01.499Z,14.2
2022-10-25T04:56:01.108Z,14.1
2022-10-25T04:57:01.678Z,14.1
2022-10-25T04:58:01.251Z,14.1
2022-10-25T04:59:01.823Z,14.1
2022-10-25T05:00:01.413Z,14.1
2022-10-25T05:01:01.079Z,14.1
2022-10-25T05:02:01.563Z,14.1
2022-10-25T05:03:01.196Z,14.1
2022-10-25T05:04:01.718Z,14
2022-10-25T05:05:01.302Z,14.1
2022-10-25T05:06:01.893Z,14.1
2022-10-25T05:07:01.465Z,14.1
2022-10-25T05:08:01.038Z,14
2022-10-25T05:09:01.631Z,14.1
2022-10-25T05:10:01.201Z,14
2022-10-25T05:11:01.794Z,14.1
2022-10-25T05:12:01.384Z,14
2022-10-25T05:13:01.939Z,14
2022-10-25T05:14:01.512Z,14.1
2022-10-25T05:15:01.084Z,14
2022-10-25T05:16:01.672Z,14.1
2022-10-25T05:17:01.244Z,14
2022-10-25T05:18:01.816Z,14
2022-10-25T05:19:01.390Z,14
2022-10-25T05:20:00.962Z,14
2022-10-25T05:21:01.561Z,14
2022-10-25T05:22:01.142Z,14
2022-10-25T05:23:01.726Z,14
2022-10-25T05:24:01.741Z,14.1
2022-10-25T05:25:01.954Z,14.1
2022-10-25T05:26:01.548Z,14.1
2022-10-25T05:27:01.143Z,14.1
2022-10-25T05:28:01.698Z,14.1
2022-10-25T05:29:01.274Z,14.1
2022-10-25T05:30:01.864Z,14.1
2022-10-25T05:31:01.488Z,14
2022-10-25T05:32:01.012Z,14
2022-10-25T05:33:02.822Z,14
2022-10-25T05:34:01.121Z,14
2022-10-25T05:35:01.709Z,14
2022-10-25T05:36:01.301Z,14
2022-10-25T05:37:01.872Z,14
2022-10-25T05:38:01.445Z,14.1
2022-10-25T05:39:01.090Z,14
2022-10-25T05:40:01.613Z,14
2022-10-25T05:41:01.250Z,14
2022-10-25T05:42:01.776Z,14
2022-10-25T05:43:01.347Z,14
2022-10-25T05:44:01.921Z,14
2022-10-25T05:45:01.493Z,14
2022-10-25T05:46:01.084Z,14
2022-10-25T05:47:01.641Z,14
2022-10-25T05:48:01.232Z,14
2022-10-25T05:49:01.788Z,14
2022-10-25T05:50:01.360Z,14
2022-10-25T05:51:08.352Z,14
2022-10-25T05:52:01.550Z,14
2022-10-25T05:53:01.124Z,14
2022-10-25T05:54:01.700Z,14
2022-10-25T05:55:01.271Z,14
2022-10-25T05:56:01.862Z,14
2022-10-25T05:57:01.462Z,14
2022-10-25T05:58:01.010Z,14
2022-10-25T05:59:01.586Z,14
2022-10-25T06:00:01.158Z,14
2022-10-25T06:01:01.856Z,14
2022-10-25T06:02:01.464Z,14
2022-10-25T06:03:00.965Z,14
2022-10-25T06:04:01.547Z,14
2022-10-25T06:05:01.118Z,14
2022-10-25T06:06:01.711Z,14
2022-10-25T06:07:01.280Z,14.1
2022-10-25T06:08:01.851Z,14
2022-10-25T06:09:01.423Z,14
2022-10-25T06:10:00.993Z,14
2022-10-25T06:11:01.581Z,14
2022-10-25T06:12:01.624Z,13.9
2022-10-25T06:13:01.615Z,13.9
2022-10-25T06:14:01.189Z,13.9
2022-10-25T06:15:01.760Z,14
2022-10-25T06:16:01.331Z,13.9
2022-10-25T06:17:01.918Z,13.9
2022-10-25T06:18:01.493Z,13.9
2022-10-25T06:19:01.067Z,14
2022-10-25T06:20:01.639Z,13.9
2022-10-25T06:21:01.210Z,13.9
2022-10-25T06:22:01.801Z,13.9
2022-10-25T06:23:01.373Z,13.9
2022-10-25T06:24:00.946Z,13.9
2022-10-25T06:25:01.517Z,13.9
2022-10-25T06:26:01.090Z,13.9
2022-10-25T06:27:01.689Z,13.8
2022-10-25T06:28:01.261Z,13.9
2022-10-25T06:29:01.869Z,13.8
2022-10-25T06:30:01.441Z,13.9
2022-10-25T06:31:01.016Z,13.9
2022-10-25T06:32:01.606Z,13.9
2022-10-25T06:33:01.178Z,13.9
2022-10-25T06:34:01.762Z,13.8
2022-10-25T06:35:01.338Z,13.9
2022-10-25T06:36:01.919Z,13.9
2022-10-25T06:37:01.510Z,13.8
2022-10-25T06:38:01.083Z,13.8
2022-10-25T06:39:03.704Z,13.8
2022-10-25T06:40:01.195Z,13.8
2022-10-25T06:41:01.772Z,13.8
2022-10-25T06:42:01.364Z,13.8
2022-10-25T06:43:01.930Z,13.8
2022-10-25T06:44:05.261Z,13.8
2022-10-25T06:45:01.110Z,13.8
2022-10-25T06:46:01.684Z,13.8
2022-10-25T06:47:17.859Z,13.8
2022-10-25T06:48:01.816Z,13.8
2022-10-25T06:49:01.390Z,13.8
2022-10-25T06:50:00.998Z,13.8
2022-10-25T06:51:01.536Z,13.8
2022-10-25T06:52:01.173Z,13.8
2022-10-25T06:53:01.704Z,13.8
2022-10-25T06:54:01.294Z,13.8
2022-10-25T06:55:01.864Z,13.8
2022-10-25T06:56:04.345Z,13.7
2022-10-25T06:57:00.988Z,13.7
2022-10-25T06:58:01.577Z,13.6
2022-10-25T06:59:01.150Z,13.6
2022-10-25T07:01:01.485Z,13.7
2022-10-25T07:02:01.978Z,13.6
2022-10-25T07:03:01.538Z,13.5
2022-10-25T07:04:01.093Z,13.5
2022-10-25T07:05:01.683Z,13.5
2022-10-25T07:06:01.267Z,13.5
2022-10-25T07:07:01.838Z,13.6
2022-10-25T07:08:01.426Z,13.6
2022-10-25T07:09:00.993Z,13.6
2022-10-25T07:10:01.566Z,13.7
2022-10-25T07:11:01.159Z,13.8
2022-10-25T07:12:01.728Z,13.8
2022-10-25T07:13:01.300Z,13.8
2022-10-25T07:14:01.875Z,13.9
2022-10-25T07:15:01.445Z,14
2022-10-25T07:16:01.036Z,14
2022-10-25T07:17:01.642Z,14
2022-10-25T07:18:01.214Z,14
2022-10-25T07:19:01.786Z,14.1
2022-10-25T07:20:01.360Z,14.1
2022-10-25T07:21:01.951Z,14.1
2022-10-25T07:22:01.525Z,14.1
2022-10-25T07:23:01.212Z,14.1
2022-10-25T07:24:01.125Z,14.1
2022-10-25T07:25:01.719Z,14.1
2022-10-25T07:26:01.930Z,14.1
2022-10-25T07:27:01.504Z,14.1
2022-10-25T07:28:01.079Z,14.2
2022-10-25T07:29:01.648Z,14.2
2022-10-25T07:30:01.234Z,14.1
2022-10-25T07:31:01.818Z,14.2
2022-10-25T07:32:01.390Z,14.2
2022-10-25T07:33:00.989Z,14.2
2022-10-25T07:34:01.554Z,14.3
2022-10-25T07:35:01.136Z,14.2
2022-10-25T07:36:13.205Z,14.3
2022-10-25T07:37:01.263Z,14.4
2022-10-25T07:38:01.836Z,14.4
2022-10-25T07:39:01.413Z,14.4
2022-10-25T07:40:00.983Z,14.4
2022-10-25T07:41:01.572Z,14.4
2022-10-25T07:42:01.147Z,14.5
2022-10-25T07:43:01.719Z,14.5
2022-10-25T07:44:01.309Z,14.6
2022-10-25T07:45:01.879Z,14.6
2022-10-25T07:46:01.467Z,14.6
2022-10-25T07:47:01.040Z,14.7
2022-10-25T07:48:01.629Z,14.6
2022-10-25T07:49:01.243Z,14.6
2022-10-25T07:50:01.781Z,14.6
2022-10-25T07:51:01.369Z,14.6
2022-10-25T07:52:00.986Z,14.5
2022-10-25T07:53:01.513Z,14.6
2022-10-25T07:54:01.101Z,14.6
2022-10-25T07:55:01.675Z,14.7
2022-10-25T07:56:01.272Z,14.8
2022-10-25T07:57:01.840Z,14.7
2022-10-25T07:58:01.417Z,14.6
2022-10-25T07:59:00.988Z,14.7
2022-10-25T08:00:01.562Z,14.8
2022-10-25T08:01:01.157Z,14.8
2022-10-25T08:02:01.722Z,14.8
2022-10-25T08:03:01.332Z,14.8
2022-10-25T08:04:01.881Z,14.8
2022-10-25T08:05:01.480Z,14.8
2022-10-25T08:06:01.072Z,14.8
2022-10-25T08:07:01.637Z,14.7
2022-10-25T08:08:01.219Z,14.6
2022-10-25T08:09:05.389Z,14.6
2022-10-25T08:10:01.328Z,14.7
2022-10-25T08:11:01.922Z,14.7
2022-10-25T08:12:01.495Z,14.8
2022-10-25T08:13:01.065Z,14.8
2022-10-25T08:14:01.634Z,14.6
2022-10-25T08:15:01.221Z,14.6
2022-10-25T08:16:01.807Z,14.6
2022-10-25T08:17:01.383Z,14.6
2022-10-25T08:18:00.967Z,14.6
2022-10-25T08:19:01.547Z,14.6
2022-10-25T08:20:01.125Z,14.7
2022-10-25T08:21:03.257Z,14.7
2022-10-25T08:22:01.182Z,14.8
2022-10-25T08:23:01.770Z,14.7
2022-10-25T08:24:01.366Z,14.6
2022-10-25T08:25:01.939Z,14.7
2022-10-25T08:26:01.542Z,14.8
2022-10-25T08:27:01.163Z,14.7
2022-10-25T08:28:01.722Z,14.7
2022-10-25T08:29:01.294Z,14.7
2022-10-25T08:30:01.916Z,14.6
2022-10-25T08:31:01.830Z,14.7
2022-10-25T08:32:01.092Z,14.7
2022-10-25T08:33:01.666Z,14.8
2022-10-25T08:34:01.309Z,14.7
2022-10-25T08:35:01.826Z,14.7
2022-10-25T08:36:01.399Z,14.7
2022-10-25T08:37:01.021Z,14.8
2022-10-25T08:38:01.559Z,14.8
2022-10-25T08:39:01.135Z,14.8
2022-10-25T08:40:01.703Z,14.8
2022-10-25T08:41:01.275Z,14.7
2022-10-25T08:42:01.850Z,14.8
2022-10-25T08:43:01.438Z,14.6
2022-10-25T08:45:01.568Z,14.6
2022-10-25T08:46:01.140Z,14.6
2022-10-25T08:47:01.713Z,14.6
2022-10-25T08:48:01.303Z,14.5
2022-10-25T08:49:01.888Z,14.5
2022-10-25T08:50:01.460Z,14.5
2022-10-25T08:51:01.031Z,14.6
2022-10-25T08:52:01.604Z,14.6
2022-10-25T08:53:01.256Z,14.6
2022-10-25T08:54:01.772Z,14.6
2022-10-25T08:55:03.170Z,14.6
2022-10-25T08:56:17.700Z,14.5
2022-10-25T08:57:14.880Z,14.5
2022-10-25T08:58:01.955Z,14.6
2022-10-25T08:59:01.544Z,14.6
2022-10-25T09:00:01.134Z,14.8
2022-10-25T09:01:01.840Z,14.7
2022-10-25T09:02:01.494Z,14.7
2022-10-25T09:03:01.952Z,14.8
2022-10-25T09:04:01.549Z,14.9
2022-10-25T09:05:01.123Z,14.8
2022-10-25T09:06:01.697Z,14.9
2022-10-25T09:07:01.269Z,15.1
2022-10-25T09:08:01.842Z,15
2022-10-25T09:09:01.460Z,15
2022-10-25T09:10:01.005Z,15
2022-10-25T09:11:01.594Z,14.9
2022-10-25T09:12:01.165Z,14.9
2022-10-25T09:13:01.742Z,14.9
2022-10-25T09:14:01.337Z,14.9
2022-10-25T09:15:01.928Z,15
2022-10-25T09:16:01.508Z,15.1
2022-10-25T09:17:01.096Z,15
2022-10-25T09:18:01.667Z,14.9
2022-10-25T09:19:01.239Z,15
2022-10-25T09:20:01.816Z,15
2022-10-25T09:21:01.393Z,15
2022-10-25T09:22:00.979Z,15
2022-10-25T09:23:01.543Z,15
2022-10-25T09:24:01.129Z,15.2
2022-10-25T09:25:01.739Z,15.2
2022-10-25T09:26:01.317Z,15.3
2022-10-25T09:27:01.890Z,15.3
2022-10-25T09:28:01.484Z,15.3
2022-10-25T09:29:01.064Z,15.4
2022-10-25T09:30:03.734Z,15.6
2022-10-25T09:31:01.170Z,15.5
2022-10-25T09:32:01.745Z,15.5
2022-10-25T09:33:01.429Z,15.6
2022-10-25T09:34:03.054Z,15.6
2022-10-25T09:35:01.531Z,15.7
2022-10-25T09:36:01.124Z,15.9
2022-10-25T09:37:01.738Z,16
2022-10-25T09:38:01.315Z,15.9
2022-10-25T09:39:01.887Z,15.9
2022-10-25T09:40:01.459Z,15.8
2022-10-25T09:41:01.065Z,15.8
2022-10-25T09:42:01.647Z,16
2022-10-25T09:43:01.286Z,16.1
2022-10-25T09:44:01.804Z,16.1
2022-10-25T09:45:01.377Z,16.1
2022-10-25T09:46:01.963Z,16.1
2022-10-25T09:47:01.537Z,16
2022-10-25T09:48:01.124Z,15.9
2022-10-25T09:49:01.712Z,15.8
2022-10-25T09:50:01.284Z,15.6
2022-10-25T09:51:01.880Z,15.6
2022-10-25T09:52:01.457Z,15.7
2022-10-25T09:53:01.039Z,15.6
2022-10-25T09:54:01.653Z,15.6
2022-10-25T09:55:01.241Z,15.6
2022-10-25T09:56:01.827Z,15.6
2022-10-25T09:57:01.431Z,15.5
2022-10-25T09:58:00.986Z,15.5
2022-10-25T09:59:01.559Z,15.5
2022-10-25T10:00:01.149Z,15.5
2022-10-25T10:01:01.745Z,15.5
2022-10-25T10:02:01.484Z,15.5
2022-10-25T10:03:01.958Z,15.5
2022-10-25T10:04:01.565Z,15.6
2022-10-25T10:05:01.150Z,15.6
2022-10-25T10:06:01.722Z,15.5
2022-10-25T10:07:01.294Z,15.6
2022-10-25T10:08:01.873Z,15.5
2022-10-25T10:09:01.469Z,15.6
2022-10-25T10:10:01.055Z,15.6
2022-10-25T10:11:01.640Z,15.7
2022-10-25T10:12:01.213Z,15.7
2022-10-25T10:13:01.849Z,15.6
2022-10-25T10:14:02.282Z,15.7
2022-10-25T10:15:00.981Z,15.7
2022-10-25T10:16:01.573Z,15.7
2022-10-25T10:17:01.146Z,15.6
2022-10-25T10:18:01.717Z,15.6
2022-10-25T10:19:01.292Z,15.7
2022-10-25T10:20:01.872Z,15.7
2022-10-25T10:21:01.465Z,15.6
2022-10-25T10:22:01.031Z,15.5
2022-10-25T10:23:01.854Z,15.5
2022-10-25T10:24:01.138Z,15.5
2022-10-25T10:25:01.723Z,15.5
2022-10-25T10:26:01.321Z,15.4
2022-10-25T10:27:01.890Z,15.4
2022-10-25T10:28:01.478Z,15.3
2022-10-25T10:29:01.072Z,15.3
2022-10-25T10:30:01.637Z,15.3
2022-10-25T10:31:01.209Z,15.4
2022-10-25T10:32:01.780Z,15.4
2022-10-25T10:33:01.378Z,15.5
2022-10-25T10:34:01.934Z,15.6
2022-10-25T10:35:01.513Z,15.6
2022-10-25T10:36:01.085Z,15.8
2022-10-25T10:37:01.657Z,15.9
2022-10-25T10:38:01.248Z,15.9
2022-10-25T10:39:01.819Z,15.8
2022-10-25T10:40:01.393Z,16
2022-10-25T10:41:00.971Z,15.9
2022-10-25T10:42:01.551Z,16
2022-10-25T10:43:01.139Z,16
2022-10-25T10:44:01.696Z,16
2022-10-25T10:45:01.292Z,16.1
2022-10-25T10:46:01.838Z,15.9
2022-10-25T10:47:01.410Z,15.8
2022-10-25T10:48:00.998Z,15.8
2022-10-25T10:49:01.584Z,15.9
2022-10-25T10:50:01.156Z,15.9
2022-10-25T10:51:01.730Z,15.9
2022-10-25T10:52:01.302Z,16
2022-10-25T10:53:01.888Z,15.9
2022-10-25T10:54:01.503Z,15.8
2022-10-25T10:55:01.060Z,15.8
2022-10-25T10:56:01.635Z,15.7
2022-10-25T10:57:01.215Z,15.8
2022-10-25T10:58:01.789Z,15.9
2022-10-25T10:59:01.366Z,16.1
2022-10-25T11:00:01.956Z,15.9
2022-10-25T11:01:01.680Z,15.9
2022-10-25T11:02:01.268Z,15.9
2022-10-25T11:03:01.761Z,16
2022-10-25T11:04:01.406Z,16
2022-10-25T11:05:01.942Z,16.1
2022-10-25T11:06:01.531Z,16.1
2022-10-25T11:07:01.126Z,16.2
2022-10-25T11:08:01.697Z,16.3
2022-10-25T11:09:01.270Z,16.4
2022-10-25T11:10:01.876Z,16.5
2022-10-25T11:11:01.448Z,16.3
2022-10-25T11:12:01.022Z,16.2
2022-10-25T11:13:01.594Z,16.2
2022-10-25T11:14:01.165Z,16.3
2022-10-25T11:15:01.755Z,16.4
2022-10-25T11:16:01.339Z,16.5
2022-10-25T11:17:02.030Z,16.6
2022-10-25T11:18:01.602Z,16.7
2022-10-25T11:19:01.155Z,16.6
2022-10-25T11:20:01.747Z,16.8
2022-10-25T11:21:01.328Z,17.1
2022-10-25T11:22:01.901Z,17.3
2022-10-25T11:23:02.827Z,17.3
2022-10-25T11:24:01.025Z,17.3
2022-10-25T11:25:01.597Z,17.4
2022-10-25T11:26:01.170Z,17.2
2022-10-25T11:27:01.741Z,16.8
2022-10-25T11:28:01.329Z,16.5
2022-10-25T11:29:01.897Z,16.5
2022-10-25T11:30:01.479Z,16.7
2022-10-25T11:31:01.050Z,16.8
2022-10-25T11:32:01.635Z,16.6
2022-10-25T11:33:01.328Z,16.5
2022-10-25T11:34:01.803Z,16.6
2022-10-25T11:35:01.375Z,16.8
2022-10-25T11:36:01.952Z,16.8
2022-10-25T11:37:01.543Z,16.9
2022-10-25T11:38:01.117Z,16.9
2022-10-25T11:39:01.689Z,17
2022-10-25T11:40:01.260Z,17
2022-10-25T11:41:01.831Z,17.2
2022-10-25T11:42:01.417Z,17.2
2022-10-25T11:43:00.990Z,17.2
2022-10-25T11:44:01.565Z,17.2
2022-10-25T11:45:01.137Z,17.2
2022-10-25T11:46:01.707Z,17.1
2022-10-25T11:47:01.313Z,17.1
2022-10-25T11:48:01.854Z,17
2022-10-25T11:49:01.600Z,16.7
2022-10-25T11:50:01.011Z,16.7
2022-10-25T11:51:01.591Z,16.6
2022-10-25T11:52:01.298Z,16.6
2022-10-25T11:53:01.749Z,16.7
2022-10-25T11:54:01.329Z,16.7
2022-10-25T11:55:01.938Z,16.6
2022-10-25T11:56:01.527Z,16.6
2022-10-25T11:57:01.096Z,16.7
2022-10-25T11:58:04.346Z,16.8
2022-10-25T11:59:01.223Z,16.8
2022-10-25T12:00:01.799Z,16.9
2022-10-25T12:01:01.643Z,17
2022-10-25T12:02:01.953Z,17
2022-10-25T12:03:01.595Z,17.1
2022-10-25T12:04:01.198Z,17.1
2022-10-25T12:05:01.888Z,17.3
2022-10-25T12:06:01.433Z,17.4
2022-10-25T12:07:01.006Z,17.4
2022-10-25T12:08:01.596Z,17.2
2022-10-25T12:09:01.177Z,17
2022-10-25T12:10:01.750Z,16.9
2022-10-25T12:11:01.323Z,17
2022-10-25T12:12:01.894Z,17.1
2022-10-25T12:13:01.477Z,17.2
2022-10-25T12:14:01.051Z,17.3
2022-10-25T12:15:01.622Z,17.4
2022-10-25T12:16:01.192Z,17.4
2022-10-25T12:17:01.781Z,17.4
2022-10-25T12:18:01.375Z,17.4
2022-10-25T12:19:01.945Z,17.2
2022-10-25T12:20:01.542Z,17.1
2022-10-25T12:21:01.240Z,17
2022-10-25T12:22:02.026Z,16.8
2022-10-25T12:23:01.901Z,16.9
2022-10-25T12:24:01.471Z,16.9
2022-10-25T12:25:01.058Z,17
2022-10-25T12:26:01.633Z,16.9
2022-10-25T12:27:01.774Z,16.9
2022-10-25T12:28:01.348Z,16.9
2022-10-25T12:29:01.922Z,16.8
2022-10-25T12:30:01.509Z,16.8
2022-10-25T12:31:01.083Z,16.8
2022-10-25T12:32:01.675Z,16.7
2022-10-25T12:33:01.249Z,16.6
2022-10-25T12:34:01.834Z,16.7
2022-10-25T12:35:01.406Z,17
2022-10-25T12:36:00.982Z,16.9
2022-10-25T12:37:01.694Z,17
2022-10-25T12:38:01.217Z,16.9
2022-10-25T12:39:01.792Z,17
2022-10-25T12:40:01.394Z,17
2022-10-25T12:41:01.954Z,17
2022-10-25T12:42:01.563Z,16.9
2022-10-25T12:43:01.158Z,17
2022-10-25T12:44:01.733Z,17
2022-10-25T12:45:01.334Z,17
2022-10-25T12:46:01.910Z,16.9
2022-10-25T12:47:01.483Z,16.9
2022-10-25T12:48:01.061Z,17
2022-10-25T12:49:01.633Z,17.1
2022-10-25T12:50:01.209Z,17.1
2022-10-25T12:51:01.805Z,17
2022-10-25T12:52:01.392Z,17
2022-10-25T12:53:02.079Z,17
2022-10-25T12:54:01.657Z,17.2
2022-10-25T12:55:01.191Z,17.2
2022-10-25T12:56:01.822Z,17.3
2022-10-25T12:57:01.394Z,17.4
2022-10-25T12:58:01.965Z,17.4
2022-10-25T12:59:01.544Z,17.4
2022-10-25T13:00:01.120Z,17.5
2022-10-25T13:01:01.926Z,17.4
2022-10-25T13:02:01.356Z,17.5
2022-10-25T13:03:01.934Z,17.3
2022-10-25T13:04:01.506Z,17.2
2022-10-25T13:05:01.082Z,17.1
2022-10-25T13:06:01.684Z,17
2022-10-25T13:07:01.258Z,17.1
2022-10-25T13:08:01.831Z,17.1
2022-10-25T13:09:01.527Z,16.9
2022-10-25T13:10:00.988Z,16.8
2022-10-25T13:11:01.578Z,16.8
2022-10-25T13:12:01.168Z,16.8
2022-10-25T13:13:01.725Z,16.8
2022-10-25T13:14:01.304Z,16.9
2022-10-25T13:15:01.877Z,17
2022-10-25T13:16:01.468Z,17
2022-10-25T13:17:01.043Z,17.1
2022-10-25T13:18:01.671Z,17
2022-10-25T13:19:01.248Z,16.9
2022-10-25T13:20:01.822Z,17.1
2022-10-25T13:21:01.415Z,17
2022-10-25T13:22:00.980Z,16.9
2022-10-25T13:23:01.553Z,16.8
2022-10-25T13:24:01.124Z,16.8
2022-10-25T13:25:01.814Z,16.8
2022-10-25T13:26:01.380Z,16.7
2022-10-25T13:27:01.933Z,16.7
2022-10-25T13:28:01.511Z,16.5
2022-10-25T13:29:01.081Z,16.5
2022-10-25T13:30:01.723Z,16.5